sensor_id;sensor_type;location;lat;lon;timestamp;P1;durP1;ratioP1;P2;durP2;ratioP2
12429;SDS011;6279;42.192;24.326;2022-07-29T00:02:25;5.47;;;3.70;;
12429;SDS011;6279;42.192;24.326;2022-07-29T00:04:51;6.07;;;3.60;;
12429;SDS011;6279;42.192;24.326;2022-07-29T00:07:17;6.70;;;3.57;;
12429;SDS011;6279;42.192;24.326;2022-07-29T00:09:42;4.20;;;3.20;;
12429;SDS011;6279;42.192;24.326;2022-07-29T00:12:08;6.63;;;3.53;;
12429;SDS011;6279;42.192;24.326;2022-07-29T00:14:34;6.00;;;3.70;;
12429;SDS011;6279;42.192;24.326;2022-07-29T00:16:59;4.93;;;3.40;;
12429;SDS011;6279;42.192;24.326;2022-07-29T00:19:25;6.00;;;2.80;;
12429;SDS011;6279;42.192;24.326;2022-07-29T00:21:50;6.70;;;3.30;;
12429;SDS011;6279;42.192;24.326;2022-07-29T00:24:15;4.43;;;3.43;;
12429;SDS011;6279;42.192;24.326;2022-07-29T00:26:41;4.37;;;3.30;;
12429;SDS011;6279;42.192;24.326;2022-07-29T00:29:06;4.67;;;3.20;;
12429;SDS011;6279;42.192;24.326;2022-07-29T00:31:32;5.37;;;3.63;;
12429;SDS011;6279;42.192;24.326;2022-07-29T00:33:57;8.33;;;3.80;;
12429;SDS011;6279;42.192;24.326;2022-07-29T00:36:22;3.30;;;3.00;;
12429;SDS011;6279;42.192;24.326;2022-07-29T00:38:51;7.37;;;3.73;;
12429;SDS011;6279;42.192;24.326;2022-07-29T00:41:17;3.83;;;3.20;;
12429;SDS011;6279;42.192;24.326;2022-07-29T00:43:43;3.93;;;3.40;;
12429;SDS011;6279;42.192;24.326;2022-07-29T00:46:09;6.00;;;3.20;;
12429;SDS011;6279;42.192;24.326;2022-07-29T00:48:35;3.80;;;3.50;;
12429;SDS011;6279;42.192;24.326;2022-07-29T00:51:01;3.70;;;3.37;;
12429;SDS011;6279;42.192;24.326;2022-07-29T00:53:27;4.17;;;3.77;;
12429;SDS011;6279;42.192;24.326;2022-07-29T00:55:54;6.20;;;4.03;;
12429;SDS011;6279;42.192;24.326;2022-07-29T00:58:20;4.53;;;3.83;;
12429;SDS011;6279;42.192;24.326;2022-07-29T01:00:46;5.33;;;4.17;;
12429;SDS011;6279;42.192;24.326;2022-07-29T01:03:12;7.67;;;3.90;;
12429;SDS011;6279;42.192;24.326;2022-07-29T01:05:37;7.73;;;4.13;;
12429;SDS011;6279;42.192;24.326;2022-07-29T01:08:05;8.13;;;3.87;;
12429;SDS011;6279;42.192;24.326;2022-07-29T01:10:31;6.63;;;3.60;;
12429;SDS011;6279;42.192;24.326;2022-07-29T01:12:58;6.30;;;3.80;;
12429;SDS011;6279;42.192;24.326;2022-07-29T01:15:25;4.33;;;3.90;;
12429;SDS011;6279;42.192;24.326;2022-07-29T01:17:54;5.97;;;3.60;;
12429;SDS011;6279;42.192;24.326;2022-07-29T01:29:20;4.47;;;3.47;;
12429;SDS011;6279;42.192;24.326;2022-07-29T01:31:49;4.73;;;3.80;;
12429;SDS011;6279;42.192;24.326;2022-07-29T01:34:21;5.07;;;4.40;;
12429;SDS011;6279;42.192;24.326;2022-07-29T01:36:57;5.70;;;3.90;;
12429;SDS011;6279;42.192;24.326;2022-07-29T01:39:30;5.17;;;3.90;;
12429;SDS011;6279;42.192;24.326;2022-07-29T01:42:05;6.47;;;4.67;;
12429;SDS011;6279;42.192;24.326;2022-07-29T01:44:35;5.70;;;4.40;;
12429;SDS011;6279;42.192;24.326;2022-07-29T01:47:10;4.47;;;4.07;;
12429;SDS011;6279;42.192;24.326;2022-07-29T01:49:41;5.00;;;4.50;;
12429;SDS011;6279;42.192;24.326;2022-07-29T01:52:13;5.00;;;4.50;;
12429;SDS011;6279;42.192;24.326;2022-07-29T01:54:52;7.20;;;4.80;;
12429;SDS011;6279;42.192;24.326;2022-07-29T01:57:21;6.20;;;4.67;;
12429;SDS011;6279;42.192;24.326;2022-07-29T01:59:54;7.33;;;4.20;;
12429;SDS011;6279;42.192;24.326;2022-07-29T02:02:22;6.10;;;4.70;;
12429;SDS011;6279;42.192;24.326;2022-07-29T02:04:48;5.90;;;4.73;;
12429;SDS011;6279;42.192;24.326;2022-07-29T02:07:17;6.13;;;4.70;;
12429;SDS011;6279;42.192;24.326;2022-07-29T02:09:44;5.80;;;5.20;;
12429;SDS011;6279;42.192;24.326;2022-07-29T02:12:12;5.70;;;5.20;;
12429;SDS011;6279;42.192;24.326;2022-07-29T02:14:43;6.50;;;5.30;;
12429;SDS011;6279;42.192;24.326;2022-07-29T02:17:11;6.63;;;5.87;;
12429;SDS011;6279;42.192;24.326;2022-07-29T02:19:38;8.47;;;5.47;;
12429;SDS011;6279;42.192;24.326;2022-07-29T02:22:05;7.30;;;6.40;;
12429;SDS011;6279;42.192;24.326;2022-07-29T02:24:32;6.80;;;5.80;;
12429;SDS011;6279;42.192;24.326;2022-07-29T02:27:01;9.60;;;6.00;;
12429;SDS011;6279;42.192;24.326;2022-07-29T02:29:28;10.17;;;6.20;;
12429;SDS011;6279;42.192;24.326;2022-07-29T02:31:56;8.00;;;6.70;;
12429;SDS011;6279;42.192;24.326;2022-07-29T02:34:24;11.23;;;6.73;;
12429;SDS011;6279;42.192;24.326;2022-07-29T02:36:50;7.20;;;6.23;;
12429;SDS011;6279;42.192;24.326;2022-07-29T02:39:17;6.40;;;5.80;;
12429;SDS011;6279;42.192;24.326;2022-07-29T02:41:47;7.27;;;6.03;;
12429;SDS011;6279;42.192;24.326;2022-07-29T02:44:19;7.10;;;5.40;;
12429;SDS011;6279;42.192;24.326;2022-07-29T02:46:53;6.10;;;5.50;;
12429;SDS011;6279;42.192;24.326;2022-07-29T02:51:49;7.13;;;5.03;;
12429;SDS011;6279;42.192;24.326;2022-07-29T02:54:23;5.93;;;4.93;;
12429;SDS011;6279;42.192;24.326;2022-07-29T02:56:50;5.93;;;5.03;;
12429;SDS011;6279;42.192;24.326;2022-07-29T02:59:21;9.10;;;5.20;;
12429;SDS011;6279;42.192;24.326;2022-07-29T03:01:51;6.13;;;4.90;;
12429;SDS011;6279;42.192;24.326;2022-07-29T03:04:18;5.67;;;5.17;;
12429;SDS011;6279;42.192;24.326;2022-07-29T03:06:44;7.87;;;5.47;;
12429;SDS011;6279;42.192;24.326;2022-07-29T03:09:11;7.23;;;5.60;;
12429;SDS011;6279;42.192;24.326;2022-07-29T03:11:38;6.63;;;5.97;;
12429;SDS011;6279;42.192;24.326;2022-07-29T03:14:04;6.70;;;5.90;;
12429;SDS011;6279;42.192;24.326;2022-07-29T03:16:30;7.87;;;6.47;;
12429;SDS011;6279;42.192;24.326;2022-07-29T03:18:56;9.23;;;6.60;;
12429;SDS011;6279;42.192;24.326;2022-07-29T03:21:22;7.57;;;6.70;;
12429;SDS011;6279;42.192;24.326;2022-07-29T03:23:48;8.07;;;6.80;;
12429;SDS011;6279;42.192;24.326;2022-07-29T03:26:13;7.43;;;6.77;;
12429;SDS011;6279;42.192;24.326;2022-07-29T03:28:39;10.77;;;7.20;;
12429;SDS011;6279;42.192;24.326;2022-07-29T03:31:04;8.03;;;6.83;;
12429;SDS011;6279;42.192;24.326;2022-07-29T03:33:30;8.43;;;6.27;;
12429;SDS011;6279;42.192;24.326;2022-07-29T03:35:56;7.00;;;6.30;;
12429;SDS011;6279;42.192;24.326;2022-07-29T03:38:21;8.97;;;6.20;;
12429;SDS011;6279;42.192;24.326;2022-07-29T03:40:51;9.43;;;6.20;;
12429;SDS011;6279;42.192;24.326;2022-07-29T03:43:30;8.93;;;6.30;;
12429;SDS011;6279;42.192;24.326;2022-07-29T03:45:59;8.83;;;6.80;;
12429;SDS011;6279;42.192;24.326;2022-07-29T03:48:25;6.60;;;5.80;;
12429;SDS011;6279;42.192;24.326;2022-07-29T03:50:54;7.83;;;6.37;;
12429;SDS011;6279;42.192;24.326;2022-07-29T03:53:20;9.50;;;7.00;;
12429;SDS011;6279;42.192;24.326;2022-07-29T03:55:50;8.13;;;7.33;;
12429;SDS011;6279;42.192;24.326;2022-07-29T03:58:19;7.27;;;6.67;;
12429;SDS011;6279;42.192;24.326;2022-07-29T04:00:44;8.77;;;6.97;;
12429;SDS011;6279;42.192;24.326;2022-07-29T04:03:11;10.77;;;7.47;;
12429;SDS011;6279;42.192;24.326;2022-07-29T04:05:38;8.03;;;7.10;;
12429;SDS011;6279;42.192;24.326;2022-07-29T04:08:04;9.93;;;7.43;;
12429;SDS011;6279;42.192;24.326;2022-07-29T04:10:29;7.87;;;7.17;;
12429;SDS011;6279;42.192;24.326;2022-07-29T04:12:55;8.47;;;7.27;;
12429;SDS011;6279;42.192;24.326;2022-07-29T04:15:21;7.77;;;6.80;;
12429;SDS011;6279;42.192;24.326;2022-07-29T04:17:46;10.33;;;6.53;;
12429;SDS011;6279;42.192;24.326;2022-07-29T04:20:11;11.93;;;7.13;;
12429;SDS011;6279;42.192;24.326;2022-07-29T04:22:38;7.30;;;6.60;;
12429;SDS011;6279;42.192;24.326;2022-07-29T04:25:04;7.80;;;6.90;;
12429;SDS011;6279;42.192;24.326;2022-07-29T04:27:30;7.60;;;6.80;;
12429;SDS011;6279;42.192;24.326;2022-07-29T04:29:55;7.53;;;6.73;;
12429;SDS011;6279;42.192;24.326;2022-07-29T04:32:21;10.07;;;7.50;;
12429;SDS011;6279;42.192;24.326;2022-07-29T04:34:46;10.07;;;7.93;;
12429;SDS011;6279;42.192;24.326;2022-07-29T04:37:12;9.00;;;6.40;;
12429;SDS011;6279;42.192;24.326;2022-07-29T04:39:37;9.03;;;7.80;;
12429;SDS011;6279;42.192;24.326;2022-07-29T04:42:03;7.40;;;5.73;;
12429;SDS011;6279;42.192;24.326;2022-07-29T04:44:28;6.43;;;5.73;;
12429;SDS011;6279;42.192;24.326;2022-07-29T04:46:54;8.63;;;5.97;;
12429;SDS011;6279;42.192;24.326;2022-07-29T04:49:20;7.27;;;5.90;;
12429;SDS011;6279;42.192;24.326;2022-07-29T04:51:45;9.33;;;6.30;;
12429;SDS011;6279;42.192;24.326;2022-07-29T04:54:11;6.70;;;6.00;;
12429;SDS011;6279;42.192;24.326;2022-07-29T04:56:36;6.73;;;5.57;;
12429;SDS011;6279;42.192;24.326;2022-07-29T04:59:01;5.97;;;5.37;;
12429;SDS011;6279;42.192;24.326;2022-07-29T05:01:27;7.77;;;5.93;;
12429;SDS011;6279;42.192;24.326;2022-07-29T05:03:52;5.93;;;5.32;;
12429;SDS011;6279;42.192;24.326;2022-07-29T05:06:18;7.10;;;5.30;;
12429;SDS011;6279;42.192;24.326;2022-07-29T05:08:43;5.80;;;5.15;;
12429;SDS011;6279;42.192;24.326;2022-07-29T05:11:08;9.90;;;5.78;;
12429;SDS011;6279;42.192;24.326;2022-07-29T05:13:34;6.75;;;5.40;;
12429;SDS011;6279;42.192;24.326;2022-07-29T05:15:59;7.82;;;5.60;;
12429;SDS011;6279;42.192;24.326;2022-07-29T05:18:25;5.72;;;5.22;;
12429;SDS011;6279;42.192;24.326;2022-07-29T05:20:50;6.03;;;5.35;;
12429;SDS011;6279;42.192;24.326;2022-07-29T05:23:16;6.03;;;4.85;;
12429;SDS011;6279;42.192;24.326;2022-07-29T05:25:41;5.25;;;4.78;;
12429;SDS011;6279;42.192;24.326;2022-07-29T05:28:07;5.20;;;4.75;;
12429;SDS011;6279;42.192;24.326;2022-07-29T05:30:32;7.57;;;4.60;;
12429;SDS011;6279;42.192;24.326;2022-07-29T05:32:58;7.70;;;4.95;;
12429;SDS011;6279;42.192;24.326;2022-07-29T05:35:23;6.65;;;4.78;;
12429;SDS011;6279;42.192;24.326;2022-07-29T05:37:48;10.00;;;4.93;;
12429;SDS011;6279;42.192;24.326;2022-07-29T05:40:14;8.65;;;4.97;;
12429;SDS011;6279;42.192;24.326;2022-07-29T05:42:39;7.53;;;4.47;;
12429;SDS011;6279;42.192;24.326;2022-07-29T05:45:05;5.05;;;4.57;;
12429;SDS011;6279;42.192;24.326;2022-07-29T05:47:31;4.93;;;4.40;;
12429;SDS011;6279;42.192;24.326;2022-07-29T05:49:56;5.72;;;4.78;;
12429;SDS011;6279;42.192;24.326;2022-07-29T05:52:22;5.20;;;4.70;;
12429;SDS011;6279;42.192;24.326;2022-07-29T05:54:47;5.50;;;4.30;;
12429;SDS011;6279;42.192;24.326;2022-07-29T05:57:19;5.40;;;4.45;;
12429;SDS011;6279;42.192;24.326;2022-07-29T05:59:46;8.13;;;4.60;;
12429;SDS011;6279;42.192;24.326;2022-07-29T06:02:13;4.75;;;4.03;;
12429;SDS011;6279;42.192;24.326;2022-07-29T06:04:38;5.55;;;4.13;;
12429;SDS011;6279;42.192;24.326;2022-07-29T06:07:04;4.78;;;4.38;;
12429;SDS011;6279;42.192;24.326;2022-07-29T06:09:29;5.85;;;4.78;;
12429;SDS011;6279;42.192;24.326;2022-07-29T06:11:55;6.88;;;4.20;;
12429;SDS011;6279;42.192;24.326;2022-07-29T06:14:20;5.85;;;4.28;;
12429;SDS011;6279;42.192;24.326;2022-07-29T06:16:46;4.10;;;3.58;;
12429;SDS011;6279;42.192;24.326;2022-07-29T06:19:11;4.32;;;3.67;;
12429;SDS011;6279;42.192;24.326;2022-07-29T06:21:41;4.65;;;3.85;;
12429;SDS011;6279;42.192;24.326;2022-07-29T06:24:10;4.40;;;4.00;;
12429;SDS011;6279;42.192;24.326;2022-07-29T06:26:37;5.60;;;4.25;;
12429;SDS011;6279;42.192;24.326;2022-07-29T06:29:03;7.18;;;3.50;;
12429;SDS011;6279;42.192;24.326;2022-07-29T06:31:28;4.90;;;3.75;;
12429;SDS011;6279;42.192;24.326;2022-07-29T06:33:54;4.72;;;3.50;;
12429;SDS011;6279;42.192;24.326;2022-07-29T06:36:19;5.80;;;3.55;;
12429;SDS011;6279;42.192;24.326;2022-07-29T06:38:45;6.75;;;3.90;;
12429;SDS011;6279;42.192;24.326;2022-07-29T06:41:10;8.45;;;3.80;;
12429;SDS011;6279;42.192;24.326;2022-07-29T06:43:40;6.95;;;4.32;;
12429;SDS011;6279;42.192;24.326;2022-07-29T06:46:08;5.57;;;4.30;;
12429;SDS011;6279;42.192;24.326;2022-07-29T06:48:35;4.55;;;3.72;;
12429;SDS011;6279;42.192;24.326;2022-07-29T06:51:04;7.55;;;4.10;;
12429;SDS011;6279;42.192;24.326;2022-07-29T06:53:30;6.40;;;4.72;;
12429;SDS011;6279;42.192;24.326;2022-07-29T06:55:57;5.30;;;4.50;;
12429;SDS011;6279;42.192;24.326;2022-07-29T06:58:24;5.88;;;4.32;;
12429;SDS011;6279;42.192;24.326;2022-07-29T07:00:50;5.15;;;4.25;;
12429;SDS011;6279;42.192;24.326;2022-07-29T07:03:16;5.45;;;4.03;;
12429;SDS011;6279;42.192;24.326;2022-07-29T07:05:42;7.03;;;4.40;;
12429;SDS011;6279;42.192;24.326;2022-07-29T07:08:09;6.65;;;4.18;;
12429;SDS011;6279;42.192;24.326;2022-07-29T07:10:35;4.53;;;4.13;;
12429;SDS011;6279;42.192;24.326;2022-07-29T07:13:00;4.72;;;4.32;;
12429;SDS011;6279;42.192;24.326;2022-07-29T07:15:27;5.22;;;4.22;;
12429;SDS011;6279;42.192;24.326;2022-07-29T07:17:52;4.38;;;4.00;;
12429;SDS011;6279;42.192;24.326;2022-07-29T07:20:18;6.78;;;5.05;;
12429;SDS011;6279;42.192;24.326;2022-07-29T07:22:44;6.35;;;4.78;;
12429;SDS011;6279;42.192;24.326;2022-07-29T07:25:10;4.78;;;4.38;;
12429;SDS011;6279;42.192;24.326;2022-07-29T07:27:36;7.30;;;4.90;;
12429;SDS011;6279;42.192;24.326;2022-07-29T07:30:02;6.93;;;4.57;;
12429;SDS011;6279;42.192;24.326;2022-07-29T07:32:30;5.35;;;4.82;;
12429;SDS011;6279;42.192;24.326;2022-07-29T07:34:56;7.47;;;4.50;;
12429;SDS011;6279;42.192;24.326;2022-07-29T07:37:22;5.78;;;4.93;;
12429;SDS011;6279;42.192;24.326;2022-07-29T07:39:49;5.53;;;4.90;;
12429;SDS011;6279;42.192;24.326;2022-07-29T07:42:15;7.22;;;4.85;;
12429;SDS011;6279;42.192;24.326;2022-07-29T07:44:40;6.68;;;4.38;;
12429;SDS011;6279;42.192;24.326;2022-07-29T07:47:06;5.18;;;4.68;;
12429;SDS011;6279;42.192;24.326;2022-07-29T07:49:31;5.85;;;5.00;;
12429;SDS011;6279;42.192;24.326;2022-07-29T07:51:57;6.15;;;4.78;;
12429;SDS011;6279;42.192;24.326;2022-07-29T07:54:22;5.43;;;4.68;;
12429;SDS011;6279;42.192;24.326;2022-07-29T07:56:47;6.00;;;5.03;;
12429;SDS011;6279;42.192;24.326;2022-07-29T07:59:14;8.57;;;5.30;;
12429;SDS011;6279;42.192;24.326;2022-07-29T08:01:40;5.43;;;4.53;;
12429;SDS011;6279;42.192;24.326;2022-07-29T08:04:06;7.07;;;4.63;;
12429;SDS011;6279;42.192;24.326;2022-07-29T08:06:32;4.63;;;4.18;;
12429;SDS011;6279;42.192;24.326;2022-07-29T08:08:59;6.43;;;4.45;;
12429;SDS011;6279;42.192;24.326;2022-07-29T08:11:25;4.80;;;4.03;;
12429;SDS011;6279;42.192;24.326;2022-07-29T08:13:51;5.38;;;4.32;;
12429;SDS011;6279;42.192;24.326;2022-07-29T08:16:17;4.97;;;4.53;;
12429;SDS011;6279;42.192;24.326;2022-07-29T08:18:43;4.75;;;4.30;;
12429;SDS011;6279;42.192;24.326;2022-07-29T08:21:10;4.65;;;3.85;;
12429;SDS011;6279;42.192;24.326;2022-07-29T08:23:36;4.82;;;4.43;;
12429;SDS011;6279;42.192;24.326;2022-07-29T08:26:05;5.82;;;4.47;;
12429;SDS011;6279;42.192;24.326;2022-07-29T08:28:35;5.32;;;3.67;;
12429;SDS011;6279;42.192;24.326;2022-07-29T08:31:02;4.43;;;4.03;;
12429;SDS011;6279;42.192;24.326;2022-07-29T08:33:27;3.75;;;3.45;;
12429;SDS011;6279;42.192;24.326;2022-07-29T08:35:53;5.32;;;3.72;;
12429;SDS011;6279;42.192;24.326;2022-07-29T08:38:18;9.13;;;4.20;;
12429;SDS011;6279;42.192;24.326;2022-07-29T08:40:43;5.00;;;4.50;;
12429;SDS011;6279;42.192;24.326;2022-07-29T08:43:10;5.68;;;5.00;;
12429;SDS011;6279;42.192;24.326;2022-07-29T08:45:41;6.03;;;4.80;;
12429;SDS011;6279;42.192;24.326;2022-07-29T08:48:12;4.90;;;4.00;;
12429;SDS011;6279;42.192;24.326;2022-07-29T08:50:38;4.45;;;4.03;;
12429;SDS011;6279;42.192;24.326;2022-07-29T08:53:06;5.65;;;4.47;;
12429;SDS011;6279;42.192;24.326;2022-07-29T08:55:35;5.05;;;4.20;;
12429;SDS011;6279;42.192;24.326;2022-07-29T08:58:01;5.15;;;4.57;;
12429;SDS011;6279;42.192;24.326;2022-07-29T09:00:27;4.15;;;3.75;;
12429;SDS011;6279;42.192;24.326;2022-07-29T09:02:56;4.70;;;4.25;;
12429;SDS011;6279;42.192;24.326;2022-07-29T09:05:23;5.25;;;3.50;;
12429;SDS011;6279;42.192;24.326;2022-07-29T09:07:50;4.30;;;3.90;;
12429;SDS011;6279;42.192;24.326;2022-07-29T09:10:16;4.63;;;4.20;;
12429;SDS011;6279;42.192;24.326;2022-07-29T09:12:42;5.10;;;3.95;;
12429;SDS011;6279;42.192;24.326;2022-07-29T09:15:08;5.30;;;4.43;;
12429;SDS011;6279;42.192;24.326;2022-07-29T09:17:46;5.60;;;3.78;;
12429;SDS011;6279;42.192;24.326;2022-07-29T09:20:15;4.05;;;3.63;;
12429;SDS011;6279;42.192;24.326;2022-07-29T09:22:42;3.97;;;3.67;;
12429;SDS011;6279;42.192;24.326;2022-07-29T09:25:07;5.20;;;3.65;;
12429;SDS011;6279;42.192;24.326;2022-07-29T09:27:33;4.85;;;3.80;;
12429;SDS011;6279;42.192;24.326;2022-07-29T09:30:01;4.10;;;3.80;;
12429;SDS011;6279;42.192;24.326;2022-07-29T09:32:31;5.90;;;3.85;;
12429;SDS011;6279;42.192;24.326;2022-07-29T09:38:09;4.63;;;3.92;;
12429;SDS011;6279;42.192;24.326;2022-07-29T09:40:35;3.90;;;3.50;;
12429;SDS011;6279;42.192;24.326;2022-07-29T09:43:08;4.03;;;3.63;;
12429;SDS011;6279;42.192;24.326;2022-07-29T09:45:38;4.15;;;3.72;;
12429;SDS011;6279;42.192;24.326;2022-07-29T09:48:20;5.95;;;4.13;;
12429;SDS011;6279;42.192;24.326;2022-07-29T09:50:47;4.80;;;3.30;;
12429;SDS011;6279;42.192;24.326;2022-07-29T09:56:02;5.80;;;3.97;;
12429;SDS011;6279;42.192;24.326;2022-07-29T09:58:29;3.58;;;3.28;;
12429;SDS011;6279;42.192;24.326;2022-07-29T10:00:55;3.30;;;2.80;;
12429;SDS011;6279;42.192;24.326;2022-07-29T10:03:21;5.47;;;3.30;;
12429;SDS011;6279;42.192;24.326;2022-07-29T10:06:04;3.03;;;2.83;;
12429;SDS011;6279;42.192;24.326;2022-07-29T10:08:36;2.95;;;2.63;;
12429;SDS011;6279;42.192;24.326;2022-07-29T10:11:15;3.05;;;2.85;;
12429;SDS011;6279;42.192;24.326;2022-07-29T10:13:43;4.40;;;2.80;;
12429;SDS011;6279;42.192;24.326;2022-07-29T10:16:10;3.08;;;2.88;;
12429;SDS011;6279;42.192;24.326;2022-07-29T10:18:39;3.03;;;2.72;;
12429;SDS011;6279;42.192;24.326;2022-07-29T10:21:06;3.53;;;2.58;;
12429;SDS011;6279;42.192;24.326;2022-07-29T10:23:32;4.65;;;2.40;;
12429;SDS011;6279;42.192;24.326;2022-07-29T10:25:59;3.58;;;2.60;;
12429;SDS011;6279;42.192;24.326;2022-07-29T10:28:24;2.60;;;2.40;;
12429;SDS011;6279;42.192;24.326;2022-07-29T10:30:50;5.47;;;2.40;;
12429;SDS011;6279;42.192;24.326;2022-07-29T10:42:17;2.53;;;2.33;;
12429;SDS011;6279;42.192;24.326;2022-07-29T10:44:45;3.67;;;2.40;;
12429;SDS011;6279;42.192;24.326;2022-07-29T10:49:56;4.78;;;2.53;;
12429;SDS011;6279;42.192;24.326;2022-07-29T10:52:23;5.00;;;2.78;;
12429;SDS011;6279;42.192;24.326;2022-07-29T10:54:52;2.83;;;2.60;;
12429;SDS011;6279;42.192;24.326;2022-07-29T11:07:26;2.70;;;2.50;;
12429;SDS011;6279;42.192;24.326;2022-07-29T11:17:33;5.60;;;2.88;;
12429;SDS011;6279;42.192;24.326;2022-07-29T11:20:30;6.38;;;3.13;;
12429;SDS011;6279;42.192;24.326;2022-07-29T11:22:56;3.13;;;2.47;;
12429;SDS011;6279;42.192;24.326;2022-07-29T11:25:21;2.70;;;2.35;;
12429;SDS011;6279;42.192;24.326;2022-07-29T11:27:47;3.65;;;2.50;;
12429;SDS011;6279;42.192;24.326;2022-07-29T11:30:12;4.10;;;2.28;;
12429;SDS011;6279;42.192;24.326;2022-07-29T11:32:39;4.80;;;2.65;;
12429;SDS011;6279;42.192;24.326;2022-07-29T11:35:22;3.35;;;2.22;;
12429;SDS011;6279;42.192;24.326;2022-07-29T11:43:57;2.70;;;2.50;;
12429;SDS011;6279;42.192;24.326;2022-07-29T11:46:44;5.30;;;3.67;;
12429;SDS011;6279;42.192;24.326;2022-07-29T11:49:18;4.18;;;2.47;;
12429;SDS011;6279;42.192;24.326;2022-07-29T11:51:50;2.85;;;2.30;;
12429;SDS011;6279;42.192;24.326;2022-07-29T11:54:52;3.08;;;2.17;;
12429;SDS011;6279;42.192;24.326;2022-07-29T11:57:12;2.55;;;2.30;;
12429;SDS011;6279;42.192;24.326;2022-07-29T11:59:39;2.85;;;2.38;;
12429;SDS011;6279;42.192;24.326;2022-07-29T12:02:06;2.50;;;2.30;;
12429;SDS011;6279;42.192;24.326;2022-07-29T12:04:33;6.07;;;2.10;;
12429;SDS011;6279;42.192;24.326;2022-07-29T12:07:12;2.47;;;2.28;;
12429;SDS011;6279;42.192;24.326;2022-07-29T12:09:38;2.58;;;2.38;;
12429;SDS011;6279;42.192;24.326;2022-07-29T12:12:03;3.60;;;2.13;;
12429;SDS011;6279;42.192;24.326;2022-07-29T12:14:29;4.72;;;2.40;;
12429;SDS011;6279;42.192;24.326;2022-07-29T12:16:56;2.58;;;2.38;;
12429;SDS011;6279;42.192;24.326;2022-07-29T12:19:22;2.63;;;2.20;;
12429;SDS011;6279;42.192;24.326;2022-07-29T12:24:18;2.40;;;2.20;;
12429;SDS011;6279;42.192;24.326;2022-07-29T12:26:50;3.38;;;2.45;;
12429;SDS011;6279;42.192;24.326;2022-07-29T12:29:20;3.10;;;2.40;;
12429;SDS011;6279;42.192;24.326;2022-07-29T12:31:45;2.83;;;2.40;;
12429;SDS011;6279;42.192;24.326;2022-07-29T12:34:12;2.58;;;2.25;;
12429;SDS011;6279;42.192;24.326;2022-07-29T12:36:38;4.82;;;3.85;;
12429;SDS011;6279;42.192;24.326;2022-07-29T12:39:05;3.67;;;2.30;;
12429;SDS011;6279;42.192;24.326;2022-07-29T12:41:30;3.40;;;2.42;;
12429;SDS011;6279;42.192;24.326;2022-07-29T12:43:56;2.38;;;2.17;;
12429;SDS011;6279;42.192;24.326;2022-07-29T12:46:22;2.25;;;2.08;;
12429;SDS011;6279;42.192;24.326;2022-07-29T12:48:50;3.78;;;2.50;;
12429;SDS011;6279;42.192;24.326;2022-07-29T12:51:29;2.67;;;2.15;;
12429;SDS011;6279;42.192;24.326;2022-07-29T12:54:11;3.65;;;2.00;;
12429;SDS011;6279;42.192;24.326;2022-07-29T12:56:39;2.40;;;1.98;;
12429;SDS011;6279;42.192;24.326;2022-07-29T13:01:41;4.28;;;1.90;;
12429;SDS011;6279;42.192;24.326;2022-07-29T13:04:07;2.67;;;2.10;;
12429;SDS011;6279;42.192;24.326;2022-07-29T13:06:42;3.20;;;2.20;;
12429;SDS011;6279;42.192;24.326;2022-07-29T13:11:39;4.30;;;2.30;;
12429;SDS011;6279;42.192;24.326;2022-07-29T13:14:08;5.15;;;2.40;;
12429;SDS011;6279;42.192;24.326;2022-07-29T13:16:59;2.33;;;2.13;;
12429;SDS011;6279;42.192;24.326;2022-07-29T13:19:34;3.08;;;2.45;;
12429;SDS011;6279;42.192;24.326;2022-07-29T13:22:00;3.55;;;2.33;;
12429;SDS011;6279;42.192;24.326;2022-07-29T13:24:25;2.42;;;2.20;;
12429;SDS011;6279;42.192;24.326;2022-07-29T13:26:51;3.83;;;2.75;;
12429;SDS011;6279;42.192;24.326;2022-07-29T13:29:16;3.47;;;2.38;;
12429;SDS011;6279;42.192;24.326;2022-07-29T13:31:42;3.25;;;2.53;;
12429;SDS011;6279;42.192;24.326;2022-07-29T13:34:08;2.60;;;2.13;;
12429;SDS011;6279;42.192;24.326;2022-07-29T13:36:33;2.65;;;2.45;;
12429;SDS011;6279;42.192;24.326;2022-07-29T13:38:58;3.70;;;2.53;;
12429;SDS011;6279;42.192;24.326;2022-07-29T13:41:26;4.82;;;2.78;;
12429;SDS011;6279;42.192;24.326;2022-07-29T13:43:51;4.78;;;2.90;;
12429;SDS011;6279;42.192;24.326;2022-07-29T13:46:17;3.63;;;2.70;;
12429;SDS011;6279;42.192;24.326;2022-07-29T13:48:42;6.07;;;2.55;;
12429;SDS011;6279;42.192;24.326;2022-07-29T13:51:08;2.70;;;2.50;;
12429;SDS011;6279;42.192;24.326;2022-07-29T13:53:33;3.10;;;2.88;;
12429;SDS011;6279;42.192;24.326;2022-07-29T13:55:58;4.05;;;3.00;;
12429;SDS011;6279;42.192;24.326;2022-07-29T13:58:24;4.50;;;2.50;;
12429;SDS011;6279;42.192;24.326;2022-07-29T14:00:49;3.00;;;2.70;;
12429;SDS011;6279;42.192;24.326;2022-07-29T14:03:15;6.15;;;2.58;;
12429;SDS011;6279;42.192;24.326;2022-07-29T14:05:40;2.70;;;2.50;;
12429;SDS011;6279;42.192;24.326;2022-07-29T14:08:05;4.72;;;2.72;;
12429;SDS011;6279;42.192;24.326;2022-07-29T14:10:31;4.25;;;2.90;;
12429;SDS011;6279;42.192;24.326;2022-07-29T14:12:56;5.00;;;2.63;;
12429;SDS011;6279;42.192;24.326;2022-07-29T14:15:22;2.80;;;2.60;;
12429;SDS011;6279;42.192;24.326;2022-07-29T14:17:48;4.25;;;2.70;;
12429;SDS011;6279;42.192;24.326;2022-07-29T14:20:13;3.38;;;2.40;;
12429;SDS011;6279;42.192;24.326;2022-07-29T14:22:40;4.68;;;2.58;;
12429;SDS011;6279;42.192;24.326;2022-07-29T14:25:07;3.22;;;2.67;;
12429;SDS011;6279;42.192;24.326;2022-07-29T14:27:33;5.32;;;2.60;;
12429;SDS011;6279;42.192;24.326;2022-07-29T14:29:59;3.10;;;2.80;;
12429;SDS011;6279;42.192;24.326;2022-07-29T14:32:24;2.60;;;2.30;;
12429;SDS011;6279;42.192;24.326;2022-07-29T14:34:49;2.83;;;2.63;;
12429;SDS011;6279;42.192;24.326;2022-07-29T14:37:15;4.68;;;3.15;;
12429;SDS011;6279;42.192;24.326;2022-07-29T14:39:40;4.45;;;2.70;;
12429;SDS011;6279;42.192;24.326;2022-07-29T14:42:06;3.22;;;2.42;;
12429;SDS011;6279;42.192;24.326;2022-07-29T14:44:31;5.75;;;2.63;;
12429;SDS011;6279;42.192;24.326;2022-07-29T14:46:57;4.82;;;2.55;;
12429;SDS011;6279;42.192;24.326;2022-07-29T14:49:24;3.85;;;2.67;;
12429;SDS011;6279;42.192;24.326;2022-07-29T14:51:50;2.80;;;2.60;;
12429;SDS011;6279;42.192;24.326;2022-07-29T14:54:16;5.43;;;2.80;;
12429;SDS011;6279;42.192;24.326;2022-07-29T14:56:41;3.10;;;2.60;;
12429;SDS011;6279;42.192;24.326;2022-07-29T14:59:07;4.30;;;3.00;;
12429;SDS011;6279;42.192;24.326;2022-07-29T15:01:32;2.88;;;2.42;;
12429;SDS011;6279;42.192;24.326;2022-07-29T15:03:58;5.10;;;2.60;;
12429;SDS011;6279;42.192;24.326;2022-07-29T15:06:23;3.47;;;2.85;;
12429;SDS011;6279;42.192;24.326;2022-07-29T15:08:49;3.13;;;2.78;;
12429;SDS011;6279;42.192;24.326;2022-07-29T15:11:14;5.45;;;2.90;;
12429;SDS011;6279;42.192;24.326;2022-07-29T15:13:39;3.28;;;2.97;;
12429;SDS011;6279;42.192;24.326;2022-07-29T15:16:05;3.33;;;3.03;;
12429;SDS011;6279;42.192;24.326;2022-07-29T15:18:31;6.25;;;3.30;;
12429;SDS011;6279;42.192;24.326;2022-07-29T15:20:56;5.78;;;3.08;;
12429;SDS011;6279;42.192;24.326;2022-07-29T15:23:22;4.47;;;3.40;;
12429;SDS011;6279;42.192;24.326;2022-07-29T15:25:47;5.35;;;3.35;;
12429;SDS011;6279;42.192;24.326;2022-07-29T15:28:13;3.92;;;3.30;;
12429;SDS011;6279;42.192;24.326;2022-07-29T15:30:38;3.78;;;3.10;;
12429;SDS011;6279;42.192;24.326;2022-07-29T15:33:07;5.20;;;2.88;;
12429;SDS011;6279;42.192;24.326;2022-07-29T15:35:34;5.63;;;3.05;;
12429;SDS011;6279;42.192;24.326;2022-07-29T15:38:00;3.63;;;3.08;;
12429;SDS011;6279;42.192;24.326;2022-07-29T15:40:26;3.95;;;3.55;;
12429;SDS011;6279;42.192;24.326;2022-07-29T15:42:51;4.05;;;3.13;;
12429;SDS011;6279;42.192;24.326;2022-07-29T15:45:17;3.30;;;2.92;;
12429;SDS011;6279;42.192;24.326;2022-07-29T15:47:42;3.38;;;2.90;;
12429;SDS011;6279;42.192;24.326;2022-07-29T15:50:07;3.65;;;2.90;;